KSUA

Witham Field Airport

Stuart, Florida, USA
METAR KSUA 182050Z 26003KT 7SM VCTS SCT022 SCT033 28/20 A3009
Observed Flight Rules
Aug-18 @ 20:50 UTC (an hour ago) Visual Flight Rules
Wind Visibility Clouds Conditions
260° at 3 knots 7 miles
  • Scattered at 2,200' AGL
  • Scattered at 3,300' AGL
  • Area Thunderstorm
Temperatures Readings
Current 28°C / 82°F
Dewpoint 20°C / 68°F
Humidity 62%
Altimeter 30.09" Hg
Pressure 1019 hPa
Elevation 6
METAR KSUA 182050Z 26003KT 7SM VCTS SCT022 SCT033 28/20 A3009
Observed Flight Rules
Aug-18 @ 20:50 UTC
(an hour ago)
VFR
Wind Visibility
260° at 3 knots 7 miles
Clouds
  • Scattered at 2,200' AGL
  • Scattered at 3,300' AGL
Conditions
  • Area Thunderstorm
Temperature Dewpoint
28°C / 82°F 20°C / 68°F
Humidity Altimeter Pressure
62% 30.09" Hg 1019 hPa